Aizu-Wakamatsu, Japan

8:29 PM JST on August 20, 2014 (GMT +0900)
Niigata | Change Station
CLOSE
Current Station
Airport
Location: Niigata Airport,
Elevation: 13 ft
Nearby Weather Stations

Elev 13 ft 37.96 °N, 139.11 °E | Updated 29 minutes ago

Partly Cloudy
Partly Cloudy
82 °F
Feels Like 88 °F
N
7
Wind Variable Wind from SSW

Today
High -- | Low -- °F
--% Chance of Precip.
Yesterday
High -- | Low -- °F
Precip. -- in
5:00 AM 6:26 PM
Waning Crescent, 22% visible
Pressure 29.92 in
Visibility 6.2 miles
Clouds Few 3000 ft
Heat Index 88 °F
Dew Point 73 °F
Humidity 74%
Rainfall 0.00 in
Snow Depth Not available.
UV 0 out of 12
Pollen Not available.
Air Quality Not available.
Flu Activity Not available.
METAR RJSN 201100Z 21006KT 9999 FEW030 BKN/// 28/23 Q1013

More Conditions Fewer Conditions

Pressure 29.92 in
Visibility 6.2 miles
Clouds Few 3000 ft
Heat Index 88 °F
Dew Point 73 °F
Humidity 74%
Rainfall 0.00 in
Snow Depth Not available.
UV 0 out of 12
Pollen Not available.
Air Quality Not available.
Flu Activity Not available.
METAR RJSN 201100Z 21006KT 9999 FEW030 BKN/// 28/23 Q1013

More Conditions Fewer Conditions

10-Day Weather Forecast

Almanac

Astronomy

Aug. 20, 2014 Rise Set
Actual Time 5:00 AM JST 6:26 PM JST
Civil Twilight 4:32 AM JST 6:54 PM JST
Nautical Twilight 3:59 AM JST 7:27 PM JST
Astronomical Twilight 3:24 AM JST 8:01 PM JST
Moon 12:11 AM JST 2:39 PM JST
Length of Visible Light 14h 21m
Length of Day
13h 26m
Tomorrow will be 2m 10s shorter.
Waning Crescent, 22% of the Moon is Illuminated
Today
Waning Crescent
Aug 25
New
Sep 2
First Quarter
Sep 8
Full
Sep 15
Last Quarter

Yesterday's Extremes

Country Highs Country Lows

Community

WunderPhotos

Upload Photos

1,745,611 photos uploaded!

Nearby

Snow Depth

Not available.

Earthquake Activity

City Distance Mag. Time & Date
No recent earthquake activity has been reported nearby.
Minimum magnitude displayed is 2.5.

Coastal Water Temperatures

Place Temperature
No Stations Reporting

Nearby Weather Stations